createdAt,value
2023-01-19T00:01:00.845Z,32.08
2023-01-19T00:03:29.447Z,33.17
2023-01-19T00:05:58.737Z,29.53
2023-01-19T00:08:28.816Z,24.55
2023-01-19T00:10:57.303Z,24.70
2023-01-19T00:13:26.288Z,24.23
2023-01-19T00:15:54.938Z,27.42
2023-01-19T00:18:23.646Z,19.25
2023-01-19T00:20:52.639Z,22.52
2023-01-19T00:23:21.476Z,17.42
2023-01-19T00:25:51.444Z,18.53
2023-01-19T00:28:20.628Z,22.58
2023-01-19T00:30:51.818Z,18.45
2023-01-19T00:33:20.566Z,18.23
2023-01-19T00:35:53.078Z,18.30
2023-01-19T00:38:22.214Z,18.70
2023-01-19T00:40:52.313Z,17.73
2023-01-19T00:43:19.971Z,15.40
2023-01-19T00:45:48.607Z,14.13
2023-01-19T00:48:17.057Z,12.63
2023-01-19T00:50:46.015Z,11.27
2023-01-19T00:53:14.434Z,13.95
2023-01-19T00:55:43.426Z,12.50
2023-01-19T00:58:13.850Z,15.40
2023-01-19T01:00:42.429Z,12.82
2023-01-19T01:03:11.530Z,13.52
2023-01-19T01:05:42.393Z,13.00
2023-01-19T01:08:10.808Z,12.55
2023-01-19T01:10:39.238Z,13.15
2023-01-19T01:13:20.288Z,14.02
2023-01-19T01:15:52.782Z,17.10
2023-01-19T01:18:21.675Z,12.88
2023-01-19T01:20:50.387Z,14.67
2023-01-19T01:23:22.625Z,13.63
2023-01-19T01:25:51.457Z,17.42
2023-01-19T01:28:19.898Z,17.77
2023-01-19T01:30:48.863Z,13.70
2023-01-19T01:33:40.773Z,15.13
2023-01-19T01:36:07.979Z,13.93
2023-01-19T01:38:36.388Z,14.38
2023-01-19T01:41:05.250Z,15.32
2023-01-19T01:43:48.317Z,16.63
2023-01-19T01:46:18.312Z,14.27
2023-01-19T01:48:55.009Z,15.10
2023-01-19T01:51:30.340Z,14.43
2023-01-19T01:54:07.862Z,16.70
2023-01-19T01:56:39.164Z,14.85
2023-01-19T01:59:12.627Z,15.30
2023-01-19T02:01:58.536Z,15.98
2023-01-19T02:04:30.698Z,15.10
2023-01-19T02:07:16.955Z,21.05
2023-01-19T02:10:02.894Z,18.02
2023-01-19T02:12:48.655Z,16.75
2023-01-19T02:15:18.873Z,19.42
2023-01-19T02:17:47.885Z,21.35
2023-01-19T02:20:22.450Z,14.10
2023-01-19T02:22:52.332Z,21.60
2023-01-19T02:25:22.515Z,14.80
2023-01-19T02:27:53.550Z,17.95
2023-01-19T02:30:22.885Z,20.98
2023-01-19T02:32:52.313Z,19.20
2023-01-19T02:37:49.520Z,16.15
2023-01-19T02:40:24.352Z,22.38
2023-01-19T02:42:54.947Z,14.60
2023-01-19T02:45:24.228Z,16.92
2023-01-19T02:47:54.008Z,21.42
2023-01-19T02:50:43.585Z,19.50
2023-01-19T02:55:54.499Z,22.25
2023-01-19T02:58:30.705Z,28.17
2023-01-19T03:01:09.636Z,30.33
2023-01-19T03:03:50.399Z,32.03
2023-01-19T03:06:29.644Z,29.98
2023-01-19T03:09:03.792Z,28.30
2023-01-19T03:11:38.071Z,24.17
2023-01-19T03:14:10.472Z,30.08
2023-01-19T03:16:44.054Z,29.67
2023-01-19T03:19:16.727Z,34.78
2023-01-19T03:21:49.580Z,27.70
2023-01-19T03:24:20.566Z,34.20
2023-01-19T03:26:56.426Z,29.77
2023-01-19T03:29:29.438Z,30.98
2023-01-19T03:31:59.800Z,31.45
2023-01-19T03:34:29.844Z,28.85
2023-01-19T03:37:04.044Z,38.97
2023-01-19T03:39:32.751Z,42.00
2023-01-19T03:42:06.241Z,36.60
2023-01-19T03:44:37.424Z,27.00
2023-01-19T03:47:07.409Z,34.67
2023-01-19T03:49:36.507Z,32.13
2023-01-19T03:52:05.164Z,36.25
2023-01-19T03:54:33.597Z,30.63
2023-01-19T03:57:03.752Z,31.73
2023-01-19T03:59:32.149Z,36.70
2023-01-19T04:02:00.874Z,30.67
2023-01-19T04:04:29.288Z,30.90
2023-01-19T04:06:57.784Z,28.02
2023-01-19T04:09:27.142Z,16.15
2023-01-19T04:11:55.858Z,26.48
2023-01-19T04:14:25.965Z,19.47
2023-01-19T04:16:54.962Z,23.92
2023-01-19T04:19:23.697Z,27.83
2023-01-19T04:21:52.632Z,19.27
2023-01-19T04:24:22.177Z,21.88
2023-01-19T04:29:20.713Z,28.30
2023-01-19T04:31:50.537Z,32.95
2023-01-19T04:34:19.308Z,23.88
2023-01-19T04:36:50.957Z,24.92
2023-01-19T04:39:19.394Z,27.52
2023-01-19T04:41:47.783Z,27.20
2023-01-19T04:44:16.262Z,30.95
2023-01-19T04:46:44.763Z,25.90
2023-01-19T04:49:15.461Z,29.07
2023-01-19T04:51:44.241Z,23.00
2023-01-19T04:54:12.747Z,25.80
2023-01-19T04:56:41.819Z,26.33
2023-01-19T04:59:10.280Z,26.38
2023-01-19T05:01:39.285Z,28.88
2023-01-19T05:04:08.707Z,23.15
2023-01-19T05:09:07.842Z,25.23
2023-01-19T05:11:36.520Z,31.63
2023-01-19T05:14:05.324Z,38.88
2023-01-19T05:16:34.549Z,39.05
2023-01-19T05:19:03.372Z,30.75
2023-01-19T05:21:32.019Z,40.67
2023-01-19T05:24:02.648Z,49.67
2023-01-19T05:26:31.067Z,46.47
2023-01-19T05:28:59.738Z,44.00
2023-01-19T05:31:28.170Z,44.40
2023-01-19T05:33:57.136Z,46.13
2023-01-19T05:36:25.599Z,45.55
2023-01-19T05:38:54.099Z,39.13
2023-01-19T05:41:24.181Z,48.80
2023-01-19T05:43:53.021Z,49.70
2023-01-19T05:46:21.473Z,47.08
2023-01-19T05:48:50.058Z,41.72
2023-01-19T05:51:18.619Z,56.23
2023-01-19T05:53:47.069Z,66.40
2023-01-19T05:56:15.465Z,58.70
2023-01-19T05:58:45.261Z,63.67
2023-01-19T06:01:14.017Z,55.70
2023-01-19T06:03:42.467Z,54.45
2023-01-19T06:06:11.560Z,54.00
2023-01-19T06:08:40.511Z,53.22
2023-01-19T06:11:09.830Z,48.47
2023-01-19T06:13:41.281Z,49.45
2023-01-19T06:16:12.604Z,47.92
2023-01-19T06:18:41.104Z,46.70
2023-01-19T06:21:12.302Z,51.93
2023-01-19T06:23:40.716Z,54.67
2023-01-19T06:26:09.423Z,61.47
2023-01-19T06:28:37.848Z,54.10
2023-01-19T06:31:06.913Z,55.77
2023-01-19T06:33:36.711Z,48.80
2023-01-19T06:36:05.661Z,49.75
2023-01-19T06:38:34.181Z,65.55
2023-01-19T06:41:03.574Z,151.17
2023-01-19T06:46:01.903Z,55.25
2023-01-19T06:48:30.347Z,60.25
2023-01-19T06:51:00.171Z,84.13
2023-01-19T06:53:30.189Z,69.68
2023-01-19T06:56:02.075Z,91.65
2023-01-19T06:58:32.488Z,86.55
2023-01-19T07:01:02.663Z,74.63
2023-01-19T07:03:31.898Z,82.95
2023-01-19T07:06:02.735Z,69.88
2023-01-19T07:08:31.544Z,82.30
2023-01-19T07:11:26.173Z,51.80
2023-01-19T07:13:51.787Z,66.28
2023-01-19T07:16:20.471Z,61.60
2023-01-19T07:18:50.172Z,61.92
2023-01-19T07:21:20.263Z,71.82
2023-01-19T07:23:50.179Z,76.18
2023-01-19T07:26:21.232Z,63.60
2023-01-19T07:28:50.313Z,64.40
2023-01-19T07:31:19.422Z,69.88
2023-01-19T07:33:48.445Z,78.15
2023-01-19T07:36:16.854Z,91.47
2023-01-19T07:38:46.597Z,87.73
2023-01-19T07:41:15.057Z,87.13
2023-01-19T07:43:43.572Z,79.37
2023-01-19T07:46:12.068Z,81.17
2023-01-19T07:48:41.259Z,116.07
2023-01-19T07:51:12.944Z,122.93
2023-01-19T07:53:42.238Z,97.18
2023-01-19T07:56:12.495Z,85.05
2023-01-19T07:58:40.967Z,82.70
2023-01-19T08:01:10.682Z,74.30
2023-01-19T08:03:39.674Z,85.10
2023-01-19T08:06:08.697Z,84.78
2023-01-19T08:08:37.333Z,81.85
2023-01-19T08:11:05.992Z,81.70
2023-01-19T08:13:35.793Z,85.55
2023-01-19T08:16:05.113Z,94.63
2023-01-19T08:18:33.575Z,101.60
2023-01-19T08:21:02.712Z,94.90
2023-01-19T08:23:31.451Z,94.00
2023-01-19T08:25:59.924Z,92.03
2023-01-19T08:28:28.479Z,79.10
2023-01-19T08:31:05.313Z,72.27
2023-01-19T08:33:43.043Z,71.88
2023-01-19T08:36:11.496Z,62.78
2023-01-19T08:38:43.523Z,92.60
2023-01-19T08:41:12.044Z,107.05
2023-01-19T08:43:40.520Z,138.65
2023-01-19T08:46:10.457Z,176.93
2023-01-19T08:48:40.017Z,158.82
2023-01-19T08:51:08.570Z,147.05
2023-01-19T08:53:36.950Z,132.70
2023-01-19T08:56:07.339Z,141.27
2023-01-19T08:58:35.739Z,144.15
2023-01-19T09:01:04.381Z,149.52
2023-01-19T09:03:34.279Z,154.27
2023-01-19T09:06:03.021Z,138.65
2023-01-19T09:08:31.430Z,140.82
2023-01-19T09:11:00.025Z,125.88
2023-01-19T09:13:28.611Z,74.75
2023-01-19T09:15:57.719Z,110.27
2023-01-19T09:18:26.197Z,88.43
2023-01-19T09:20:59.172Z,84.05
2023-01-19T09:23:27.813Z,68.85
2023-01-19T09:25:58.523Z,73.27
2023-01-19T09:28:27.657Z,90.65
2023-01-19T09:30:56.452Z,102.28
2023-01-19T09:33:25.637Z,108.07
2023-01-19T09:35:55.662Z,110.10
2023-01-19T09:38:25.756Z,116.90
2023-01-19T09:40:56.406Z,119.10
2023-01-19T09:43:36.462Z,103.50
2023-01-19T09:46:07.690Z,101.82
2023-01-19T09:48:45.683Z,100.07
2023-01-19T09:51:19.142Z,100.63
2023-01-19T09:54:05.903Z,89.43
2023-01-19T09:56:34.788Z,90.55
2023-01-19T09:59:16.297Z,91.30
2023-01-19T10:02:08.891Z,86.70
2023-01-19T10:04:41.511Z,76.80
2023-01-19T10:07:44.967Z,68.55
2023-01-19T10:10:20.941Z,61.47
2023-01-19T10:13:10.977Z,55.83
2023-01-19T10:15:48.863Z,62.00
2023-01-19T10:18:25.250Z,53.95
2023-01-19T10:20:57.713Z,62.20
2023-01-19T10:23:45.993Z,52.22
2023-01-19T10:26:18.105Z,67.00
2023-01-19T10:28:50.051Z,68.60
2023-01-19T10:31:22.023Z,59.92
2023-01-19T10:33:51.138Z,54.17
2023-01-19T10:36:22.483Z,48.83
2023-01-19T10:38:52.636Z,44.53
2023-01-19T10:41:25.977Z,44.50
2023-01-19T10:44:02.072Z,41.60
2023-01-19T10:46:38.782Z,46.97
2023-01-19T10:49:07.787Z,45.05
2023-01-19T10:51:48.073Z,42.38
2023-01-19T10:54:18.566Z,43.47
2023-01-19T10:56:54.335Z,31.92
2023-01-19T10:59:34.381Z,23.42
2023-01-19T11:02:19.015Z,24.02
2023-01-19T11:04:50.179Z,36.30
2023-01-19T11:07:22.024Z,34.35
2023-01-19T11:10:12.070Z,24.65
2023-01-19T11:12:42.762Z,24.80
2023-01-19T11:15:17.035Z,27.25
2023-01-19T11:17:48.168Z,24.75
2023-01-19T11:20:22.586Z,22.95
2023-01-19T11:23:05.473Z,22.30
2023-01-19T11:25:37.398Z,26.23
2023-01-19T11:28:06.599Z,23.95
2023-01-19T11:30:36.432Z,23.95
2023-01-19T11:33:06.477Z,25.35
2023-01-19T11:35:39.387Z,26.50
2023-01-19T11:38:26.029Z,26.92
2023-01-19T11:40:59.211Z,21.25
2023-01-19T11:43:43.583Z,20.77
2023-01-19T11:46:17.932Z,20.23
2023-01-19T11:48:56.649Z,19.15
2023-01-19T11:51:28.638Z,19.63
2023-01-19T11:53:57.015Z,14.65
2023-01-19T11:56:30.615Z,19.17
2023-01-19T11:58:59.164Z,16.67
2023-01-19T12:01:32.803Z,20.98
2023-01-19T12:04:05.372Z,18.05
2023-01-19T12:06:36.596Z,16.75
2023-01-19T12:09:12.945Z,12.20
2023-01-19T12:11:47.445Z,11.95
2023-01-19T12:14:20.791Z,11.60
2023-01-19T12:16:51.425Z,13.90
2023-01-19T12:19:25.611Z,14.68
2023-01-19T12:21:55.494Z,11.18
2023-01-19T12:24:34.641Z,12.02
2023-01-19T12:27:14.985Z,16.40
2023-01-19T12:29:44.203Z,70.18
2023-01-19T12:32:21.349Z,61.25
2023-01-19T12:34:51.949Z,23.60
2023-01-19T12:37:40.399Z,21.98
2023-01-19T12:40:26.843Z,24.58
2023-01-19T12:43:01.161Z,20.90
2023-01-19T12:45:33.194Z,18.23
2023-01-19T12:48:03.028Z,31.60
2023-01-19T12:53:07.207Z,14.75
2023-01-19T12:55:38.507Z,26.40
2023-01-19T12:58:14.958Z,31.70
2023-01-19T13:00:44.865Z,28.05
2023-01-19T13:06:00.170Z,15.40
2023-01-19T13:08:50.444Z,16.63
2023-01-19T13:11:21.024Z,14.82
2023-01-19T13:14:42.066Z,11.30
2023-01-19T13:17:34.172Z,11.68
2023-01-19T13:20:28.553Z,11.18
2023-01-19T13:23:20.074Z,10.68
2023-01-19T13:26:08.743Z,10.25
2023-01-19T13:28:42.183Z,9.18
2023-01-19T13:31:11.729Z,11.13
2023-01-19T13:33:51.077Z,15.43
2023-01-19T13:36:29.902Z,19.00
2023-01-19T13:39:01.064Z,32.75
2023-01-19T13:41:32.448Z,12.65
2023-01-19T13:44:03.742Z,33.10
2023-01-19T13:46:33.589Z,18.75
2023-01-19T13:49:11.695Z,9.35
2023-01-19T13:51:40.208Z,7.97
2023-01-19T13:54:17.131Z,8.95
2023-01-19T13:56:50.366Z,12.50
2023-01-19T13:59:19.219Z,12.05
2023-01-19T14:01:51.017Z,10.02
2023-01-19T14:04:32.709Z,10.60
2023-01-19T14:07:05.189Z,10.75
2023-01-19T14:09:34.252Z,10.10
2023-01-19T14:12:09.554Z,9.07
2023-01-19T14:14:38.273Z,8.85
2023-01-19T14:17:16.570Z,14.45
2023-01-19T14:19:54.257Z,14.18
2023-01-19T14:22:27.623Z,12.95
2023-01-19T14:24:55.981Z,23.73
2023-01-19T14:27:25.371Z,13.00
2023-01-19T14:29:55.069Z,14.38
2023-01-19T14:32:25.215Z,16.27
2023-01-19T14:35:15.438Z,16.25
2023-01-19T14:37:48.575Z,12.45
2023-01-19T14:40:20.239Z,12.70
2023-01-19T14:42:52.833Z,19.05
2023-01-19T14:45:23.016Z,20.83
2023-01-19T14:47:58.059Z,17.17
2023-01-19T14:50:31.091Z,18.08
2023-01-19T14:53:02.709Z,23.13
2023-01-19T14:55:36.583Z,19.95
2023-01-19T14:58:11.379Z,19.10
2023-01-19T15:00:40.331Z,16.35
2023-01-19T15:03:09.970Z,24.27
2023-01-19T15:05:40.260Z,18.67
2023-01-19T15:08:09.333Z,16.65
2023-01-19T15:10:37.825Z,19.20
2023-01-19T15:13:06.575Z,20.90
2023-01-19T15:15:36.059Z,21.10
2023-01-19T15:18:06.273Z,23.20
2023-01-19T15:20:34.766Z,21.08
2023-01-19T15:23:04.648Z,20.73
2023-01-19T15:25:33.156Z,17.73
2023-01-19T15:28:02.398Z,20.58
2023-01-19T15:30:33.346Z,20.30
2023-01-19T15:33:02.483Z,28.60
2023-01-19T15:35:31.326Z,26.63
2023-01-19T15:37:59.811Z,27.43
2023-01-19T15:40:29.634Z,25.48
2023-01-19T15:42:58.036Z,29.63
2023-01-19T15:45:35.012Z,26.27
2023-01-19T15:48:06.063Z,27.08
2023-01-19T15:50:36.626Z,29.80
2023-01-19T15:53:05.419Z,31.02
2023-01-19T15:55:35.278Z,45.27
2023-01-19T15:58:03.813Z,42.13
2023-01-19T16:00:33.902Z,51.97
2023-01-19T16:03:03.580Z,60.90
2023-01-19T16:08:12.171Z,54.85
2023-01-19T16:10:43.167Z,54.72
2023-01-19T16:13:12.510Z,52.97
2023-01-19T16:15:42.175Z,58.78
2023-01-19T16:18:10.931Z,71.15
2023-01-19T16:20:39.421Z,96.05
2023-01-19T16:23:15.774Z,108.40
2023-01-19T16:25:45.837Z,64.68
2023-01-19T16:28:14.323Z,53.78
2023-01-19T16:30:42.735Z,58.25
2023-01-19T16:33:14.825Z,50.53
2023-01-19T16:35:43.226Z,107.13
2023-01-19T16:38:11.642Z,128.82
2023-01-19T16:40:40.132Z,136.25
2023-01-19T16:43:10.096Z,178.13
2023-01-19T16:45:58.062Z,162.13
2023-01-19T16:48:26.872Z,101.97
2023-01-19T16:51:00.454Z,75.95
2023-01-19T16:53:30.187Z,64.88
2023-01-19T16:58:28.529Z,67.55
2023-01-19T17:00:57.510Z,54.63
2023-01-19T17:03:26.966Z,64.47
2023-01-19T17:05:55.438Z,58.53
2023-01-19T17:08:24.470Z,55.35
2023-01-19T17:10:52.853Z,54.65
2023-01-19T17:13:21.335Z,61.25
2023-01-19T17:15:51.391Z,65.47
2023-01-19T17:18:20.311Z,70.70
2023-01-19T17:20:48.962Z,76.82
2023-01-19T17:23:17.729Z,77.03
2023-01-19T17:25:53.510Z,102.38
2023-01-19T17:28:22.755Z,102.95
2023-01-19T17:30:53.741Z,88.70
2023-01-19T17:33:23.480Z,97.68
2023-01-19T17:38:20.732Z,85.03
2023-01-19T17:40:49.110Z,92.90
2023-01-19T17:43:17.507Z,91.85
2023-01-19T17:45:46.040Z,94.07
2023-01-19T17:48:17.398Z,109.03
2023-01-19T17:50:45.922Z,112.38
2023-01-19T17:53:14.638Z,103.45
2023-01-19T17:55:43.053Z,90.80
2023-01-19T17:58:11.483Z,96.38
2023-01-19T18:00:39.864Z,88.45
2023-01-19T18:03:08.279Z,85.65
2023-01-19T18:05:38.109Z,81.63
2023-01-19T18:08:07.109Z,82.55
2023-01-19T18:10:35.704Z,85.15
2023-01-19T18:13:04.506Z,92.85
2023-01-19T18:15:33.257Z,89.73
2023-01-19T18:18:01.739Z,94.80
2023-01-19T18:20:31.714Z,103.88
2023-01-19T18:23:01.491Z,103.30
2023-01-19T18:25:30.319Z,99.97
2023-01-19T18:27:59.274Z,143.77
2023-01-19T18:30:28.023Z,117.68
2023-01-19T18:32:56.812Z,122.53
2023-01-19T18:35:26.443Z,113.80
2023-01-19T18:40:27.004Z,96.75
2023-01-19T18:42:55.747Z,81.32
2023-01-19T18:45:24.514Z,82.15
2023-01-19T18:47:53.107Z,89.97
2023-01-19T18:50:21.726Z,98.57
2023-01-19T18:52:51.441Z,91.32
2023-01-19T18:57:50.762Z,76.35
2023-01-19T19:00:20.479Z,81.90
2023-01-19T19:05:17.616Z,104.20
2023-01-19T19:07:46.053Z,81.47
2023-01-19T19:10:15.093Z,88.45
2023-01-19T19:12:44.063Z,81.68
2023-01-19T19:15:14.465Z,91.13
2023-01-19T19:17:42.991Z,79.40
2023-01-19T19:20:13.127Z,87.43
2023-01-19T19:22:42.111Z,82.32
2023-01-19T19:25:11.192Z,96.93
2023-01-19T19:27:41.029Z,98.70
2023-01-19T19:30:11.273Z,88.57
2023-01-19T19:32:41.159Z,86.38
2023-01-19T19:37:39.613Z,64.43
2023-01-19T19:40:09.572Z,67.85
2023-01-19T19:42:39.131Z,82.80
2023-01-19T19:45:08.557Z,86.43
2023-01-19T19:47:36.975Z,71.22
2023-01-19T19:50:07.568Z,79.53
2023-01-19T19:52:39.709Z,84.20
2023-01-19T19:55:12.680Z,64.97
2023-01-19T19:57:41.243Z,71.13
2023-01-19T20:00:11.552Z,47.67
2023-01-19T20:02:40.231Z,56.80
2023-01-19T20:05:10.960Z,54.50
2023-01-19T20:07:46.252Z,53.92
2023-01-19T20:10:15.179Z,40.85
2023-01-19T20:12:43.847Z,42.78
2023-01-19T20:15:12.928Z,45.28
2023-01-19T20:17:41.499Z,48.20
2023-01-19T20:20:13.223Z,46.95
2023-01-19T20:22:41.851Z,40.10
2023-01-19T20:25:10.950Z,42.30
2023-01-19T20:27:39.411Z,43.00
2023-01-19T20:30:09.105Z,35.63
2023-01-19T20:35:08.704Z,37.13
2023-01-19T20:37:39.039Z,39.70
2023-01-19T20:40:07.760Z,35.55
2023-01-19T20:42:36.773Z,39.97
2023-01-19T20:45:05.790Z,37.42
2023-01-19T20:47:34.214Z,40.20
2023-01-19T20:50:02.800Z,34.65
2023-01-19T20:52:31.342Z,36.45
2023-01-19T20:55:01.317Z,32.88
2023-01-19T20:57:30.065Z,32.38
2023-01-19T20:59:58.485Z,39.13
2023-01-19T21:02:28.548Z,37.22
2023-01-19T21:04:57.113Z,40.90
2023-01-19T21:07:25.516Z,34.78
2023-01-19T21:09:53.931Z,33.47
2023-01-19T21:12:23.868Z,35.63
2023-01-19T21:14:52.647Z,36.30
2023-01-19T21:17:21.156Z,27.90
2023-01-19T21:19:49.692Z,38.67
2023-01-19T21:22:18.467Z,28.63
2023-01-19T21:24:48.056Z,30.30
2023-01-19T21:27:16.703Z,36.45
2023-01-19T21:29:48.246Z,28.27
2023-01-19T21:32:16.661Z,31.92
2023-01-19T21:34:45.498Z,32.17
2023-01-19T21:37:14.174Z,31.13
2023-01-19T21:39:42.599Z,36.47
2023-01-19T21:42:11.011Z,33.53
2023-01-19T21:44:39.494Z,30.90
2023-01-19T21:47:11.799Z,32.22
2023-01-19T21:49:40.337Z,32.70
2023-01-19T21:52:09.122Z,30.55
2023-01-19T21:54:37.701Z,30.77
2023-01-19T21:57:06.532Z,37.97
2023-01-19T21:59:34.934Z,28.50
2023-01-19T22:02:03.780Z,26.85
2023-01-19T22:04:35.172Z,30.15
2023-01-19T22:07:03.566Z,27.45
2023-01-19T22:09:34.535Z,30.45
2023-01-19T22:12:03.467Z,27.52
2023-01-19T22:14:32.074Z,27.77
2023-01-19T22:17:00.649Z,29.25
2023-01-19T22:19:29.138Z,28.55
2023-01-19T22:21:59.384Z,27.00
2023-01-19T22:24:28.091Z,26.17
2023-01-19T22:26:56.853Z,28.35
2023-01-19T22:29:25.294Z,28.35
2023-01-19T22:31:54.377Z,28.55
2023-01-19T22:34:23.158Z,22.23
2023-01-19T22:36:51.945Z,27.20
2023-01-19T22:39:21.927Z,31.83
2023-01-19T22:41:50.726Z,27.90
2023-01-19T22:44:20.945Z,31.83
2023-01-19T22:46:50.781Z,29.65
2023-01-19T22:49:19.854Z,31.40
2023-01-19T22:51:48.696Z,36.55
2023-01-19T22:54:17.454Z,33.53
2023-01-19T22:56:47.657Z,35.45
2023-01-19T22:59:16.116Z,28.92
2023-01-19T23:01:45.641Z,28.15
2023-01-19T23:04:15.830Z,30.25
2023-01-19T23:06:46.901Z,34.47
2023-01-19T23:09:16.081Z,35.38
2023-01-19T23:11:50.410Z,33.80
2023-01-19T23:14:20.735Z,37.60
2023-01-19T23:16:49.781Z,31.63
2023-01-19T23:19:19.082Z,34.05
2023-01-19T23:21:48.197Z,36.88
2023-01-19T23:24:16.670Z,39.00
2023-01-19T23:26:45.325Z,33.08
2023-01-19T23:29:16.522Z,30.50
2023-01-19T23:31:47.044Z,33.20
2023-01-19T23:34:15.823Z,29.85
2023-01-19T23:36:44.925Z,37.17
2023-01-19T23:39:16.091Z,32.63
2023-01-19T23:41:44.716Z,37.80
2023-01-19T23:44:15.126Z,42.67
2023-01-19T23:46:44.102Z,39.38
2023-01-19T23:49:12.633Z,39.80
2023-01-19T23:51:42.256Z,36.92
2023-01-19T23:59:12.961Z,32.60
